Weather at Camrose Airport

Public forecast

Using degrees Celsius for public forecast. Weather courtesy of forecast.io.

Closest aviation weather report (METAR) to Camrose Airport

Closest report is Edmonton International Airport, 31.9 nm (59.1 km) WNW.

2022/11/30 16:00 (retrieved 12 minutes ago)

CYEG 301600Z 08012KT 2 1/4SM R02/5000VP6000FT/D -SN DRSN VV012 M16/M18 A2997 RMK SN8 SLP218

Closest aviation forecast (TAF) to Camrose Airport

Closest forecast is Edmonton International Airport, 31.9 nm (59.1 km) WNW.

2022/11/30 15:33 Ammendment (retrieved 39 minutes ago)

TAF AMD TAF AMD CYEG 301530Z 3015/0112 10012KT 3SM -SN VV030 TEMPO 3015/3017 1SM -SN VV010 FM301700 09012G22KT 1/2SM SN VV004 TEMPO 3017/3024 2SM -SN VV015 BECMG 3022/3024 06010G20KT FM010000 07010G20KT 1SM -SN VV009 TEMPO 0100/0102 3SM -SN VV020 BECMG 0102/0103 6SM -SN OVC020 FM010300 05010KT 6SM -SN OVC020 TEMPO 0103/0106 P6SM NSW OVC025 FM010600 01005KT P6SM OVC030 TEMPO 0108/0112 SCT030 BKN070 BECMG 0110/0112 28004KT RMK NXT FCST BY 301800Z